sensor_id;sensor_type;location;lat;lon;timestamp;pressure;altitude;pressure_sealevel;temperature;humidity
74268;BME280;62638;51.362;12.472;2023-05-10T00:00:43;99547.91;;;9.17;81.28
74268;BME280;62638;51.362;12.472;2023-05-10T00:03:08;99544.44;;;9.06;81.76
74268;BME280;62638;51.362;12.472;2023-05-10T00:05:33;99547.28;;;9.05;81.44
74268;BME280;62638;51.362;12.472;2023-05-10T00:07:59;99539.34;;;8.95;82.12
74268;BME280;62638;51.362;12.472;2023-05-10T00:10:24;99536.88;;;9.02;81.80
74268;BME280;62638;51.362;12.472;2023-05-10T00:12:49;99528.06;;;9.01;81.98
74268;BME280;62638;51.362;12.472;2023-05-10T00:15:14;99534.06;;;8.86;82.07
74268;BME280;62638;51.362;12.472;2023-05-10T00:17:40;99530.06;;;8.72;83.03
74268;BME280;62638;51.362;12.472;2023-05-10T00:20:05;99527.25;;;8.74;83.64
74268;BME280;62638;51.362;12.472;2023-05-10T00:22:31;99526.31;;;8.65;83.51
74268;BME280;62638;51.362;12.472;2023-05-10T00:24:57;99521.31;;;8.80;83.47
74268;BME280;62638;51.362;12.472;2023-05-10T00:27:23;99529.16;;;8.81;83.08
74268;BME280;62638;51.362;12.472;2023-05-10T00:29:48;99518.25;;;8.75;83.86
74268;BME280;62638;51.362;12.472;2023-05-10T00:32:13;99520.97;;;8.65;84.39
74268;BME280;62638;51.362;12.472;2023-05-10T00:34:39;99510.69;;;8.70;83.32
74268;BME280;62638;51.362;12.472;2023-05-10T00:37:04;99518.72;;;8.70;83.74
74268;BME280;62638;51.362;12.472;2023-05-10T00:39:29;99501.91;;;8.60;84.66
74268;BME280;62638;51.362;12.472;2023-05-10T00:41:55;99505.56;;;8.59;84.78
74268;BME280;62638;51.362;12.472;2023-05-10T00:44:20;99503.19;;;8.56;85.10
74268;BME280;62638;51.362;12.472;2023-05-10T00:46:46;99506.25;;;8.61;84.94
74268;BME280;62638;51.362;12.472;2023-05-10T00:49:12;99499.69;;;8.55;84.83
74268;BME280;62638;51.362;12.472;2023-05-10T00:51:37;99503.06;;;8.57;84.66
74268;BME280;62638;51.362;12.472;2023-05-10T00:54:02;99497.00;;;8.55;85.27
74268;BME280;62638;51.362;12.472;2023-05-10T00:56:28;99499.75;;;8.63;84.73
74268;BME280;62638;51.362;12.472;2023-05-10T00:58:55;99502.75;;;8.60;85.01
74268;BME280;62638;51.362;12.472;2023-05-10T01:01:20;99491.94;;;8.62;84.75
74268;BME280;62638;51.362;12.472;2023-05-10T01:03:46;99497.84;;;8.56;84.61
74268;BME280;62638;51.362;12.472;2023-05-10T01:06:12;99492.06;;;8.60;84.87
74268;BME280;62638;51.362;12.472;2023-05-10T01:08:37;99489.34;;;8.70;84.56
74268;BME280;62638;51.362;12.472;2023-05-10T01:11:03;99493.69;;;8.71;84.06
74268;BME280;62638;51.362;12.472;2023-05-10T01:13:33;99492.16;;;8.69;84.43
74268;BME280;62638;51.362;12.472;2023-05-10T01:15:59;99487.66;;;8.69;84.12
74268;BME280;62638;51.362;12.472;2023-05-10T01:18:26;99484.91;;;8.61;84.53
74268;BME280;62638;51.362;12.472;2023-05-10T01:21:01;99484.00;;;8.70;84.19
74268;BME280;62638;51.362;12.472;2023-05-10T01:23:44;99477.28;;;8.66;84.85
74268;BME280;62638;51.362;12.472;2023-05-10T01:26:24;99485.69;;;8.71;84.43
74268;BME280;62638;51.362;12.472;2023-05-10T01:34:18;99482.09;;;8.80;84.13
74268;BME280;62638;51.362;12.472;2023-05-10T01:36:51;99474.56;;;8.76;83.86
74268;BME280;62638;51.362;12.472;2023-05-10T01:39:31;99477.69;;;8.71;84.65
74268;BME280;62638;51.362;12.472;2023-05-10T01:42:05;99479.50;;;8.71;84.21
74268;BME280;62638;51.362;12.472;2023-05-10T01:44:37;99476.13;;;8.69;84.66
74268;BME280;62638;51.362;12.472;2023-05-10T01:47:12;99469.19;;;8.58;85.20
74268;BME280;62638;51.362;12.472;2023-05-10T01:49:42;99474.16;;;8.71;84.47
74268;BME280;62638;51.362;12.472;2023-05-10T01:52:11;99469.47;;;8.55;85.12
74268;BME280;62638;51.362;12.472;2023-05-10T01:54:43;99470.31;;;8.55;84.86
74268;BME280;62638;51.362;12.472;2023-05-10T01:57:10;99461.72;;;8.61;84.96
74268;BME280;62638;51.362;12.472;2023-05-10T01:59:40;99464.09;;;8.64;84.48
74268;BME280;62638;51.362;12.472;2023-05-10T02:02:07;99462.03;;;8.58;85.20
74268;BME280;62638;51.362;12.472;2023-05-10T02:04:37;99458.53;;;8.58;85.06
74268;BME280;62638;51.362;12.472;2023-05-10T02:07:03;99464.41;;;8.61;84.82
74268;BME280;62638;51.362;12.472;2023-05-10T02:09:32;99459.91;;;8.62;84.80
74268;BME280;62638;51.362;12.472;2023-05-10T02:11:59;99459.38;;;8.58;84.92
74268;BME280;62638;51.362;12.472;2023-05-10T02:14:29;99457.50;;;8.59;84.52
74268;BME280;62638;51.362;12.472;2023-05-10T02:16:56;99449.81;;;8.56;84.88
74268;BME280;62638;51.362;12.472;2023-05-10T02:19:23;99455.41;;;8.62;84.68
74268;BME280;62638;51.362;12.472;2023-05-10T02:21:49;99455.09;;;8.65;84.34
74268;BME280;62638;51.362;12.472;2023-05-10T02:24:16;99463.09;;;8.65;84.67
74268;BME280;62638;51.362;12.472;2023-05-10T02:26:44;99457.59;;;8.49;85.11
74268;BME280;62638;51.362;12.472;2023-05-10T02:29:10;99459.66;;;8.55;84.80
74268;BME280;62638;51.362;12.472;2023-05-10T02:31:37;99457.28;;;8.52;85.45
74268;BME280;62638;51.362;12.472;2023-05-10T02:34:04;99450.47;;;8.40;85.69
74268;BME280;62638;51.362;12.472;2023-05-10T02:36:31;99455.28;;;8.37;86.02
74268;BME280;62638;51.362;12.472;2023-05-10T02:38:57;99456.81;;;8.39;85.94
74268;BME280;62638;51.362;12.472;2023-05-10T02:41:23;99447.13;;;8.29;86.09
74268;BME280;62638;51.362;12.472;2023-05-10T02:43:50;99451.66;;;8.28;86.73
74268;BME280;62638;51.362;12.472;2023-05-10T02:46:17;99451.78;;;8.27;86.84
74268;BME280;62638;51.362;12.472;2023-05-10T02:48:42;99446.38;;;8.18;87.04
74268;BME280;62638;51.362;12.472;2023-05-10T02:51:08;99440.50;;;8.15;87.12
74268;BME280;62638;51.362;12.472;2023-05-10T02:53:35;99445.25;;;8.11;87.99
74268;BME280;62638;51.362;12.472;2023-05-10T02:56:05;99438.81;;;8.14;87.81
74268;BME280;62638;51.362;12.472;2023-05-10T02:58:32;99447.13;;;8.11;87.86
74268;BME280;62638;51.362;12.472;2023-05-10T03:00:57;99446.00;;;8.04;88.46
74268;BME280;62638;51.362;12.472;2023-05-10T03:03:23;99442.75;;;8.10;88.31
74268;BME280;62638;51.362;12.472;2023-05-10T03:05:48;99447.28;;;8.00;88.06
74268;BME280;62638;51.362;12.472;2023-05-10T03:08:13;99440.28;;;7.99;88.82
74268;BME280;62638;51.362;12.472;2023-05-10T03:10:47;99453.06;;;7.95;89.06
74268;BME280;62638;51.362;12.472;2023-05-10T03:13:44;99441.13;;;7.99;88.32
74268;BME280;62638;51.362;12.472;2023-05-10T03:16:16;99449.66;;;8.03;88.68
74268;BME280;62638;51.362;12.472;2023-05-10T03:19:12;99449.22;;;8.07;88.59
74268;BME280;62638;51.362;12.472;2023-05-10T03:21:44;99452.44;;;8.11;87.78
74268;BME280;62638;51.362;12.472;2023-05-10T03:24:13;99449.16;;;8.17;87.67
74268;BME280;62638;51.362;12.472;2023-05-10T03:26:40;99449.03;;;8.18;88.02
74268;BME280;62638;51.362;12.472;2023-05-10T03:29:08;99449.31;;;8.15;87.99
74268;BME280;62638;51.362;12.472;2023-05-10T03:31:34;99446.19;;;8.20;88.02
74268;BME280;62638;51.362;12.472;2023-05-10T03:33:59;99449.44;;;8.24;87.74
74268;BME280;62638;51.362;12.472;2023-05-10T03:36:24;99447.56;;;8.24;87.37
74268;BME280;62638;51.362;12.472;2023-05-10T03:38:50;99448.06;;;8.19;87.98
74268;BME280;62638;51.362;12.472;2023-05-10T03:41:15;99448.28;;;8.26;87.70
74268;BME280;62638;51.362;12.472;2023-05-10T03:43:40;99443.19;;;8.33;87.32
74268;BME280;62638;51.362;12.472;2023-05-10T03:46:06;99455.03;;;8.30;87.90
74268;BME280;62638;51.362;12.472;2023-05-10T03:48:32;99452.63;;;8.37;87.27
74268;BME280;62638;51.362;12.472;2023-05-10T03:50:57;99439.50;;;8.43;86.88
74268;BME280;62638;51.362;12.472;2023-05-10T03:53:22;99444.25;;;8.49;86.92
74268;BME280;62638;51.362;12.472;2023-05-10T03:55:48;99448.78;;;8.67;85.93
74268;BME280;62638;51.362;12.472;2023-05-10T03:58:13;99456.41;;;8.79;85.35
74268;BME280;62638;51.362;12.472;2023-05-10T04:00:38;99453.28;;;8.84;85.70
74268;BME280;62638;51.362;12.472;2023-05-10T04:03:08;99445.78;;;8.87;85.43
74268;BME280;62638;51.362;12.472;2023-05-10T04:05:34;99450.59;;;9.01;85.05
74268;BME280;62638;51.362;12.472;2023-05-10T04:07:59;99448.97;;;9.08;84.82
74268;BME280;62638;51.362;12.472;2023-05-10T04:10:25;99445.41;;;9.18;84.50
74268;BME280;62638;51.362;12.472;2023-05-10T04:12:50;99449.75;;;9.19;84.53
74268;BME280;62638;51.362;12.472;2023-05-10T04:15:15;99451.47;;;9.28;83.76
74268;BME280;62638;51.362;12.472;2023-05-10T04:17:41;99443.53;;;9.36;83.44
74268;BME280;62638;51.362;12.472;2023-05-10T04:20:06;99441.38;;;9.39;83.35
74268;BME280;62638;51.362;12.472;2023-05-10T04:22:32;99436.47;;;9.52;82.89
74268;BME280;62638;51.362;12.472;2023-05-10T04:24:57;99446.56;;;9.67;82.28
74268;BME280;62638;51.362;12.472;2023-05-10T04:27:23;99444.63;;;9.77;81.82
74268;BME280;62638;51.362;12.472;2023-05-10T04:29:48;99441.16;;;9.84;81.32
74268;BME280;62638;51.362;12.472;2023-05-10T04:32:13;99443.84;;;9.92;80.97
74268;BME280;62638;51.362;12.472;2023-05-10T04:34:41;99442.91;;;10.01;80.38
74268;BME280;62638;51.362;12.472;2023-05-10T04:37:06;99440.81;;;10.13;80.24
74268;BME280;62638;51.362;12.472;2023-05-10T04:39:32;99448.19;;;10.61;78.41
74268;BME280;62638;51.362;12.472;2023-05-10T04:41:57;99440.53;;;11.07;76.22
74268;BME280;62638;51.362;12.472;2023-05-10T04:44:22;99444.91;;;11.16;75.28
74268;BME280;62638;51.362;12.472;2023-05-10T04:46:48;99443.72;;;11.51;74.28
74268;BME280;62638;51.362;12.472;2023-05-10T04:49:13;99443.53;;;11.52;73.99
74268;BME280;62638;51.362;12.472;2023-05-10T04:51:39;99444.38;;;11.77;74.32
74268;BME280;62638;51.362;12.472;2023-05-10T04:54:04;99443.81;;;11.98;72.73
74268;BME280;62638;51.362;12.472;2023-05-10T04:56:30;99444.63;;;12.06;72.62
74268;BME280;62638;51.362;12.472;2023-05-10T04:58:55;99447.09;;;12.16;71.59
74268;BME280;62638;51.362;12.472;2023-05-10T05:01:20;99451.69;;;11.99;72.40
74268;BME280;62638;51.362;12.472;2023-05-10T05:03:45;99453.25;;;12.33;71.81
74268;BME280;62638;51.362;12.472;2023-05-10T05:06:11;99461.13;;;12.26;71.23
74268;BME280;62638;51.362;12.472;2023-05-10T05:08:36;99452.78;;;12.52;69.93
74268;BME280;62638;51.362;12.472;2023-05-10T05:11:01;99460.25;;;12.72;68.93
74268;BME280;62638;51.362;12.472;2023-05-10T05:13:26;99464.25;;;12.99;69.44
74268;BME280;62638;51.362;12.472;2023-05-10T05:15:52;99455.09;;;12.86;68.76
74268;BME280;62638;51.362;12.472;2023-05-10T05:18:18;99465.81;;;12.94;68.39
74268;BME280;62638;51.362;12.472;2023-05-10T05:20:43;99461.34;;;13.54;67.58
74268;BME280;62638;51.362;12.472;2023-05-10T05:23:08;99455.16;;;13.31;66.30
74268;BME280;62638;51.362;12.472;2023-05-10T05:25:34;99463.00;;;13.55;66.35
74268;BME280;62638;51.362;12.472;2023-05-10T05:27:59;99462.13;;;13.78;65.23
74268;BME280;62638;51.362;12.472;2023-05-10T05:30:24;99458.72;;;14.13;65.00
74268;BME280;62638;51.362;12.472;2023-05-10T05:32:50;99462.63;;;14.11;65.01
74268;BME280;62638;51.362;12.472;2023-05-10T05:35:15;99455.81;;;14.00;63.90
74268;BME280;62638;51.362;12.472;2023-05-10T05:37:40;99460.94;;;14.39;63.69
74268;BME280;62638;51.362;12.472;2023-05-10T05:40:06;99458.44;;;14.23;62.39
74268;BME280;62638;51.362;12.472;2023-05-10T05:42:31;99457.78;;;14.06;62.98
74268;BME280;62638;51.362;12.472;2023-05-10T05:44:57;99455.06;;;14.21;63.15
74268;BME280;62638;51.362;12.472;2023-05-10T05:47:22;99455.84;;;14.44;63.33
74268;BME280;62638;51.362;12.472;2023-05-10T05:49:47;99461.09;;;14.67;62.20
74268;BME280;62638;51.362;12.472;2023-05-10T05:52:12;99462.47;;;14.63;63.49
74268;BME280;62638;51.362;12.472;2023-05-10T05:54:38;99456.28;;;14.62;62.77
74268;BME280;62638;51.362;12.472;2023-05-10T05:57:03;99461.47;;;14.34;62.87
74268;BME280;62638;51.362;12.472;2023-05-10T05:59:29;99459.28;;;14.23;62.57
74268;BME280;62638;51.362;12.472;2023-05-10T06:01:54;99460.72;;;14.55;63.43
74268;BME280;62638;51.362;12.472;2023-05-10T06:04:19;99470.50;;;14.41;63.00
74268;BME280;62638;51.362;12.472;2023-05-10T06:06:45;99467.97;;;14.69;61.86
74268;BME280;62638;51.362;12.472;2023-05-10T06:09:10;99471.41;;;15.20;62.73
74268;BME280;62638;51.362;12.472;2023-05-10T06:11:36;99476.81;;;15.41;60.44
74268;BME280;62638;51.362;12.472;2023-05-10T06:14:02;99480.16;;;14.65;61.93
74268;BME280;62638;51.362;12.472;2023-05-10T06:16:29;99474.88;;;14.28;64.02
74268;BME280;62638;51.362;12.472;2023-05-10T06:18:54;99476.81;;;14.34;64.68
74268;BME280;62638;51.362;12.472;2023-05-10T06:21:20;99477.56;;;14.57;63.86
74268;BME280;62638;51.362;12.472;2023-05-10T06:23:45;99481.84;;;14.51;64.86
74268;BME280;62638;51.362;12.472;2023-05-10T06:26:10;99482.41;;;14.32;64.75
74268;BME280;62638;51.362;12.472;2023-05-10T06:28:36;99488.31;;;14.13;65.70
74268;BME280;62638;51.362;12.472;2023-05-10T06:31:04;99480.72;;;14.17;66.04
74268;BME280;62638;51.362;12.472;2023-05-10T06:33:29;99492.41;;;14.09;65.45
74268;BME280;62638;51.362;12.472;2023-05-10T06:35:55;99480.06;;;14.15;66.09
74268;BME280;62638;51.362;12.472;2023-05-10T06:38:20;99488.34;;;14.28;65.95
74268;BME280;62638;51.362;12.472;2023-05-10T06:40:46;99485.81;;;14.26;66.13
74268;BME280;62638;51.362;12.472;2023-05-10T06:43:11;99494.81;;;14.33;66.41
74268;BME280;62638;51.362;12.472;2023-05-10T06:45:36;99484.75;;;14.35;65.95
74268;BME280;62638;51.362;12.472;2023-05-10T06:48:02;99489.56;;;14.40;65.87
74268;BME280;62638;51.362;12.472;2023-05-10T06:50:27;99488.22;;;14.65;64.05
74268;BME280;62638;51.362;12.472;2023-05-10T06:52:53;99491.88;;;14.58;65.23
74268;BME280;62638;51.362;12.472;2023-05-10T06:55:18;99492.66;;;14.87;65.35
74268;BME280;62638;51.362;12.472;2023-05-10T06:57:43;99501.66;;;15.16;62.79
74268;BME280;62638;51.362;12.472;2023-05-10T07:00:09;99496.09;;;15.38;61.73
74268;BME280;62638;51.362;12.472;2023-05-10T07:02:35;99496.06;;;16.09;60.97
74268;BME280;62638;51.362;12.472;2023-05-10T07:05:00;99500.06;;;16.54;58.11
74268;BME280;62638;51.362;12.472;2023-05-10T07:07:26;99502.72;;;16.82;57.43
74268;BME280;62638;51.362;12.472;2023-05-10T07:09:51;99504.19;;;16.84;57.54
74268;BME280;62638;51.362;12.472;2023-05-10T07:12:17;99492.03;;;16.67;57.32
74268;BME280;62638;51.362;12.472;2023-05-10T07:14:42;99507.03;;;17.37;57.09
74268;BME280;62638;51.362;12.472;2023-05-10T07:17:07;99503.19;;;17.05;55.55
74268;BME280;62638;51.362;12.472;2023-05-10T07:19:33;99512.25;;;17.38;55.35
74268;BME280;62638;51.362;12.472;2023-05-10T07:21:58;99509.63;;;16.97;55.33
74268;BME280;62638;51.362;12.472;2023-05-10T07:24:23;99512.53;;;16.89;55.88
74268;BME280;62638;51.362;12.472;2023-05-10T07:26:49;99519.88;;;17.15;55.55
74268;BME280;62638;51.362;12.472;2023-05-10T07:29:14;99519.56;;;16.77;56.49
74268;BME280;62638;51.362;12.472;2023-05-10T07:31:40;99513.44;;;16.62;57.16
74268;BME280;62638;51.362;12.472;2023-05-10T07:34:07;99515.78;;;16.37;57.71
74268;BME280;62638;51.362;12.472;2023-05-10T07:36:32;99518.41;;;16.58;57.33
74268;BME280;62638;51.362;12.472;2023-05-10T07:38:57;99522.34;;;17.03;54.75
74268;BME280;62638;51.362;12.472;2023-05-10T07:41:23;99521.88;;;17.60;53.13
74268;BME280;62638;51.362;12.472;2023-05-10T07:43:48;99522.09;;;17.72;53.36
74268;BME280;62638;51.362;12.472;2023-05-10T07:46:13;99528.09;;;18.27;51.61
74268;BME280;62638;51.362;12.472;2023-05-10T07:48:39;99519.38;;;17.79;51.21
74268;BME280;62638;51.362;12.472;2023-05-10T07:51:04;99529.16;;;18.12;52.99
74268;BME280;62638;51.362;12.472;2023-05-10T07:53:31;99527.31;;;17.93;54.22
74268;BME280;62638;51.362;12.472;2023-05-10T07:55:57;99532.63;;;17.28;55.62
74268;BME280;62638;51.362;12.472;2023-05-10T07:58:23;99533.06;;;17.38;56.49
74268;BME280;62638;51.362;12.472;2023-05-10T08:00:48;99529.69;;;17.22;56.78
74268;BME280;62638;51.362;12.472;2023-05-10T08:03:14;99538.00;;;17.08;56.30
74268;BME280;62638;51.362;12.472;2023-05-10T08:05:39;99529.53;;;17.57;57.79
74268;BME280;62638;51.362;12.472;2023-05-10T08:08:05;99536.69;;;17.64;55.52
74268;BME280;62638;51.362;12.472;2023-05-10T08:10:31;99531.88;;;17.60;55.48
74268;BME280;62638;51.362;12.472;2023-05-10T08:12:56;99531.38;;;17.37;55.95
74268;BME280;62638;51.362;12.472;2023-05-10T08:15:23;99542.59;;;17.27;56.99
74268;BME280;62638;51.362;12.472;2023-05-10T08:17:48;99533.41;;;17.21;57.56
74268;BME280;62638;51.362;12.472;2023-05-10T08:20:14;99547.81;;;17.29;59.39
74268;BME280;62638;51.362;12.472;2023-05-10T08:22:41;99548.22;;;17.19;57.76
74268;BME280;62638;51.362;12.472;2023-05-10T08:25:07;99542.44;;;16.81;58.93
74268;BME280;62638;51.362;12.472;2023-05-10T08:27:32;99555.25;;;16.59;60.07
74268;BME280;62638;51.362;12.472;2023-05-10T08:29:58;99567.47;;;16.27;60.81
74268;BME280;62638;51.362;12.472;2023-05-10T08:32:23;99565.75;;;16.20;60.99
74268;BME280;62638;51.362;12.472;2023-05-10T08:34:48;99560.25;;;16.34;61.55
74268;BME280;62638;51.362;12.472;2023-05-10T08:37:13;99569.31;;;16.20;62.64
74268;BME280;62638;51.362;12.472;2023-05-10T08:39:39;99568.09;;;16.02;65.09
74268;BME280;62638;51.362;12.472;2023-05-10T08:42:05;99571.91;;;16.07;65.08
74268;BME280;62638;51.362;12.472;2023-05-10T08:44:35;99578.41;;;16.13;65.43
74268;BME280;62638;51.362;12.472;2023-05-10T08:47:05;99574.56;;;16.28;65.76
74268;BME280;62638;51.362;12.472;2023-05-10T08:49:32;99591.78;;;16.27;64.25
74268;BME280;62638;51.362;12.472;2023-05-10T08:51:59;99583.19;;;15.68;66.65
74268;BME280;62638;51.362;12.472;2023-05-10T08:54:26;99592.38;;;15.53;67.24
74268;BME280;62638;51.362;12.472;2023-05-10T08:56:52;99597.66;;;15.46;68.60
74268;BME280;62638;51.362;12.472;2023-05-10T08:59:18;99594.75;;;15.26;69.54
74268;BME280;62638;51.362;12.472;2023-05-10T09:01:44;99588.53;;;15.11;71.14
74268;BME280;62638;51.362;12.472;2023-05-10T09:04:10;99603.75;;;15.33;70.35
74268;BME280;62638;51.362;12.472;2023-05-10T09:06:37;99604.38;;;15.71;69.95
74268;BME280;62638;51.362;12.472;2023-05-10T09:09:02;99604.84;;;15.96;69.34
74268;BME280;62638;51.362;12.472;2023-05-10T09:11:28;99611.78;;;15.84;68.97
74268;BME280;62638;51.362;12.472;2023-05-10T09:13:55;99603.59;;;15.20;71.98
74268;BME280;62638;51.362;12.472;2023-05-10T09:16:21;99614.75;;;15.68;71.37
74268;BME280;62638;51.362;12.472;2023-05-10T09:18:47;99615.63;;;15.18;74.11
74268;BME280;62638;51.362;12.472;2023-05-10T09:21:13;99613.31;;;15.00;73.55
74268;BME280;62638;51.362;12.472;2023-05-10T09:23:42;99614.16;;;14.86;74.82
74268;BME280;62638;51.362;12.472;2023-05-10T09:26:08;99616.47;;;14.89;75.33
74268;BME280;62638;51.362;12.472;2023-05-10T09:28:34;99618.25;;;14.82;75.85
74268;BME280;62638;51.362;12.472;2023-05-10T09:31:14;99622.53;;;15.06;75.60
74268;BME280;62638;51.362;12.472;2023-05-10T09:33:47;99628.13;;;14.75;77.15
74268;BME280;62638;51.362;12.472;2023-05-10T09:36:13;99626.72;;;14.79;78.01
74268;BME280;62638;51.362;12.472;2023-05-10T09:38:49;99637.97;;;14.30;79.47
74268;BME280;62638;51.362;12.472;2023-05-10T09:41:21;99640.00;;;13.91;82.43
74268;BME280;62638;51.362;12.472;2023-05-10T09:43:47;99637.19;;;13.84;82.81
74268;BME280;62638;51.362;12.472;2023-05-10T09:46:13;99647.06;;;13.92;84.29
74268;BME280;62638;51.362;12.472;2023-05-10T09:48:44;99641.88;;;13.59;87.08
74268;BME280;62638;51.362;12.472;2023-05-10T09:51:10;99652.97;;;13.64;89.67
74268;BME280;62638;51.362;12.472;2023-05-10T09:53:36;99645.84;;;13.10;93.39
74268;BME280;62638;51.362;12.472;2023-05-10T09:56:01;99645.25;;;12.92;99.05
74268;BME280;62638;51.362;12.472;2023-05-10T09:58:27;99647.50;;;12.72;100.00
74268;BME280;62638;51.362;12.472;2023-05-10T10:00:52;99656.75;;;12.61;100.00
74268;BME280;62638;51.362;12.472;2023-05-10T10:03:20;99650.41;;;12.54;100.00
74268;BME280;62638;51.362;12.472;2023-05-10T10:05:47;99649.72;;;12.52;100.00
74268;BME280;62638;51.362;12.472;2023-05-10T10:08:13;99619.31;;;12.52;100.00
74268;BME280;62638;51.362;12.472;2023-05-10T10:10:39;99616.25;;;12.71;100.00
74268;BME280;62638;51.362;12.472;2023-05-10T10:13:05;99649.66;;;12.68;100.00
74268;BME280;62638;51.362;12.472;2023-05-10T10:15:33;99621.78;;;12.69;100.00
74268;BME280;62638;51.362;12.472;2023-05-10T10:17:59;99624.25;;;12.87;100.00
74268;BME280;62638;51.362;12.472;2023-05-10T10:20:25;99624.41;;;12.94;100.00
74268;BME280;62638;51.362;12.472;2023-05-10T10:22:51;99661.00;;;12.95;100.00
74268;BME280;62638;51.362;12.472;2023-05-10T10:25:17;99660.19;;;12.86;100.00
74268;BME280;62638;51.362;12.472;2023-05-10T10:30:35;99650.78;;;12.90;100.00
74268;BME280;62638;51.362;12.472;2023-05-10T10:33:27;99624.69;;;13.15;100.00
74268;BME280;62638;51.362;12.472;2023-05-10T10:35:54;99657.59;;;13.17;100.00
74268;BME280;62638;51.362;12.472;2023-05-10T10:38:20;99653.00;;;13.26;100.00
74268;BME280;62638;51.362;12.472;2023-05-10T10:40:47;99660.03;;;13.35;100.00
74268;BME280;62638;51.362;12.472;2023-05-10T10:43:28;99655.09;;;13.46;100.00
74268;BME280;62638;51.362;12.472;2023-05-10T10:46:13;99656.06;;;13.53;100.00
74268;BME280;62638;51.362;12.472;2023-05-10T10:48:39;99659.75;;;14.06;100.00
74268;BME280;62638;51.362;12.472;2023-05-10T10:51:04;99663.63;;;14.03;100.00
74268;BME280;62638;51.362;12.472;2023-05-10T10:53:30;99664.97;;;14.22;100.00
74268;BME280;62638;51.362;12.472;2023-05-10T10:56:12;99663.69;;;14.18;100.00
74268;BME280;62638;51.362;12.472;2023-05-10T10:58:39;99674.28;;;13.97;100.00
74268;BME280;62638;51.362;12.472;2023-05-10T11:03:39;99672.75;;;13.49;100.00
74268;BME280;62638;51.362;12.472;2023-05-10T11:06:04;99651.28;;;13.63;100.00
74268;BME280;62638;51.362;12.472;2023-05-10T11:08:34;99669.59;;;13.68;100.00
74268;BME280;62638;51.362;12.472;2023-05-10T11:13:34;99649.16;;;13.51;100.00
74268;BME280;62638;51.362;12.472;2023-05-10T11:18:38;99647.53;;;13.73;100.00
74268;BME280;62638;51.362;12.472;2023-05-10T11:21:03;99691.56;;;13.80;100.00
74268;BME280;62638;51.362;12.472;2023-05-10T11:26:07;99640.72;;;13.85;100.00
74268;BME280;62638;51.362;12.472;2023-05-10T11:28:35;99688.56;;;13.75;100.00
74268;BME280;62638;51.362;12.472;2023-05-10T11:31:00;99688.69;;;14.04;100.00
74268;BME280;62638;51.362;12.472;2023-05-10T11:33:25;99688.59;;;13.97;100.00
74268;BME280;62638;51.362;12.472;2023-05-10T11:35:50;99689.41;;;13.98;100.00
74268;BME280;62638;51.362;12.472;2023-05-10T11:38:16;99688.06;;;14.02;100.00
74268;BME280;62638;51.362;12.472;2023-05-10T11:40:41;99695.63;;;14.21;100.00
74268;BME280;62638;51.362;12.472;2023-05-10T11:43:09;99657.38;;;14.26;100.00
74268;BME280;62638;51.362;12.472;2023-05-10T11:45:35;99653.09;;;13.71;100.00
74268;BME280;62638;51.362;12.472;2023-05-10T11:48:01;99663.38;;;13.90;100.00
74268;BME280;62638;51.362;12.472;2023-05-10T11:50:27;99658.06;;;13.82;100.00
74268;BME280;62638;51.362;12.472;2023-05-10T11:52:54;99648.97;;;13.83;100.00
74268;BME280;62638;51.362;12.472;2023-05-10T11:55:20;99656.06;;;13.99;100.00
74268;BME280;62638;51.362;12.472;2023-05-10T11:57:46;99665.84;;;14.00;100.00
74268;BME280;62638;51.362;12.472;2023-05-10T12:00:12;99676.72;;;14.06;100.00
74268;BME280;62638;51.362;12.472;2023-05-10T12:02:38;99660.31;;;14.16;100.00
74268;BME280;62638;51.362;12.472;2023-05-10T12:05:04;99665.13;;;14.06;100.00
74268;BME280;62638;51.362;12.472;2023-05-10T12:07:30;99652.06;;;13.95;100.00
74268;BME280;62638;51.362;12.472;2023-05-10T12:10:12;99654.75;;;14.18;100.00
74268;BME280;62638;51.362;12.472;2023-05-10T12:12:45;99655.78;;;13.94;100.00
74268;BME280;62638;51.362;12.472;2023-05-10T12:15:18;99659.75;;;14.06;100.00
74268;BME280;62638;51.362;12.472;2023-05-10T12:17:45;99657.22;;;14.04;100.00
74268;BME280;62638;51.362;12.472;2023-05-10T12:20:18;99660.44;;;14.00;100.00
74268;BME280;62638;51.362;12.472;2023-05-10T12:22:54;99665.22;;;14.13;100.00
74268;BME280;62638;51.362;12.472;2023-05-10T12:25:23;99666.91;;;14.14;100.00
74268;BME280;62638;51.362;12.472;2023-05-10T12:27:53;99666.59;;;14.08;100.00
74268;BME280;62638;51.362;12.472;2023-05-10T12:30:20;99666.59;;;14.08;100.00
74268;BME280;62638;51.362;12.472;2023-05-10T12:32:46;99675.63;;;14.16;100.00
74268;BME280;62638;51.362;12.472;2023-05-10T12:35:14;99680.53;;;14.12;100.00
74268;BME280;62638;51.362;12.472;2023-05-10T12:37:42;99674.75;;;14.23;100.00
74268;BME280;62638;51.362;12.472;2023-05-10T12:40:09;99671.69;;;14.03;100.00
74268;BME280;62638;51.362;12.472;2023-05-10T12:42:35;99677.91;;;14.04;100.00
74268;BME280;62638;51.362;12.472;2023-05-10T12:45:02;99677.44;;;14.23;100.00
74268;BME280;62638;51.362;12.472;2023-05-10T12:47:27;99681.25;;;14.29;100.00
74268;BME280;62638;51.362;12.472;2023-05-10T12:49:53;99686.63;;;14.29;100.00
74268;BME280;62638;51.362;12.472;2023-05-10T12:52:18;99678.53;;;14.29;100.00
74268;BME280;62638;51.362;12.472;2023-05-10T12:54:43;99676.09;;;14.42;100.00
74268;BME280;62638;51.362;12.472;2023-05-10T12:57:08;99687.78;;;14.34;100.00
74268;BME280;62638;51.362;12.472;2023-05-10T12:59:34;99682.75;;;14.31;100.00
74268;BME280;62638;51.362;12.472;2023-05-10T13:01:59;99684.22;;;14.34;100.00
74268;BME280;62638;51.362;12.472;2023-05-10T13:04:24;99682.81;;;14.46;100.00
74268;BME280;62638;51.362;12.472;2023-05-10T13:06:50;99684.72;;;14.37;100.00